NJE587 KLWB-KBNA
Flight info
| Callsign | NJE587 |
|---|---|
| Flight time | N/A |
| Altitude | 33000 |
| Route | GROAT PASLY4 |
| Aircraft | GL6T/M-SGDFIBRWXY/L |
Departure
| Time | 2026-05-05 00:12 |
|---|---|
| Airport | Greenbrier Valley Airport (KLWB) |
Arrival
| Time | N/A |
|---|---|
| Airport | Nashville International Airport (KBNA) |
| Time | Latitude | Longitude | Altitude | Speed | Heading |
|---|---|---|---|---|---|
| 2026-05-04 23:47 | 37.85705 | -80.40323 | 2303 ft | 0 kts | 309° |
| 2026-05-05 00:06 | 37.85706 | -80.40325 | 2296 ft | 2 kts | 301° |
| 2026-05-05 00:06 | 37.85690 | -80.40346 | 2306 ft | 4 kts | 200° |
| 2026-05-05 00:07 | 37.85663 | -80.40353 | 2303 ft | 6 kts | 187° |
| 2026-05-05 00:07 | 37.85569 | -80.40367 | 2303 ft | 15 kts | 187° |
| 2026-05-05 00:07 | 37.85483 | -80.40428 | 2295 ft | 14 kts | 215° |
| 2026-05-05 00:07 | 37.85407 | -80.40496 | 2295 ft | 13 kts | 215° |
| 2026-05-05 00:08 | 37.85334 | -80.40561 | 2295 ft | 12 kts | 216° |
| 2026-05-05 00:08 | 37.85266 | -80.40624 | 2304 ft | 12 kts | 216° |
| 2026-05-05 00:08 | 37.85201 | -80.40683 | 2300 ft | 11 kts | 215° |
| 2026-05-05 00:08 | 37.85138 | -80.40733 | 2301 ft | 10 kts | 199° |
| 2026-05-05 00:09 | 37.85108 | -80.40723 | 2303 ft | 0 kts | 133° |
| 2026-05-05 00:11 | 37.85089 | -80.40695 | 2304 ft | 5 kts | 122° |
| 2026-05-05 00:11 | 37.85101 | -80.40605 | 2300 ft | 14 kts | 41° |
| 2026-05-05 00:11 | 37.85321 | -80.40406 | 2303 ft | 74 kts | 35° |
| 2026-05-05 00:11 | 37.85929 | -80.39857 | 2303 ft | 138 kts | 37° |
| 2026-05-05 00:12 | 37.86699 | -80.38936 | 2666 ft | 161 kts | 57° |
| 2026-05-05 00:12 | 37.87060 | -80.37531 | 3345 ft | 181 kts | 89° |
| 2026-05-05 00:12 | 37.86711 | -80.35875 | 3729 ft | 211 kts | 126° |
| 2026-05-05 00:12 | 37.85693 | -80.34525 | 4765 ft | 213 kts | 153° |
| 2026-05-05 00:13 | 37.84301 | -80.33874 | 5814 ft | 226 kts | 175° |
| 2026-05-05 00:13 | 37.82560 | -80.33875 | 6016 ft | 279 kts | 192° |
| 2026-05-05 00:13 | 37.80482 | -80.34733 | 5473 ft | 362 kts | 209° |
| 2026-05-05 00:13 | 37.78319 | -80.36780 | 5635 ft | 402 kts | 225° |
| 2026-05-05 00:14 | 37.76577 | -80.39565 | 5877 ft | 403 kts | 239° |
| 2026-05-05 00:14 | 37.75552 | -80.42781 | 7294 ft | 394 kts | 255° |
| 2026-05-05 00:14 | 37.75135 | -80.46211 | 8290 ft | 405 kts | 267° |
| 2026-05-05 00:14 | 37.75364 | -80.49766 | 9148 ft | 409 kts | 280° |
| 2026-05-05 00:15 | 37.76257 | -80.53202 | 9978 ft | 415 kts | 292° |
| 2026-05-05 00:15 | 37.77784 | -80.56341 | 10717 ft | 422 kts | 305° |
| 2026-05-05 00:15 | 37.79856 | -80.58999 | 11463 ft | 430 kts | 317° |
| 2026-05-05 00:15 | 37.82356 | -80.61068 | 12233 ft | 437 kts | 326° |
| 2026-05-05 00:16 | 37.84856 | -80.63258 | 13009 ft | 436 kts | 315° |
| 2026-05-05 00:16 | 37.86700 | -80.66299 | 13799 ft | 434 kts | 296° |
| 2026-05-05 00:16 | 37.87606 | -80.69921 | 14514 ft | 436 kts | 278° |
| 2026-05-05 00:16 | 37.87577 | -80.73722 | 15253 ft | 441 kts | 262° |
| 2026-05-05 00:17 | 37.86641 | -80.77458 | 16009 ft | 451 kts | 246° |
| 2026-05-05 00:17 | 37.84897 | -80.80809 | 16808 ft | 462 kts | 234° |
| 2026-05-05 00:17 | 37.82780 | -80.83883 | 18169 ft | 464 kts | 231° |
| 2026-05-05 00:17 | 37.80645 | -80.87004 | 19488 ft | 473 kts | 233° |
| 2026-05-05 00:18 | 37.78605 | -80.90315 | 20851 ft | 481 kts | 236° |
| 2026-05-05 00:18 | 37.76691 | -80.93834 | 22277 ft | 490 kts | 239° |
| 2026-05-05 00:18 | 37.74962 | -80.97518 | 23716 ft | 495 kts | 243° |
| 2026-05-05 00:18 | 37.73426 | -81.01441 | 25002 ft | 498 kts | 248° |
| 2026-05-05 00:19 | 37.72256 | -81.05553 | 26344 ft | 494 kts | 256° |
| 2026-05-05 00:19 | 37.71487 | -81.09764 | 27750 ft | 488 kts | 260° |
| 2026-05-05 00:19 | 37.70882 | -81.13915 | 29212 ft | 482 kts | 261° |
| 2026-05-05 00:19 | 37.70243 | -81.18026 | 30645 ft | 476 kts | 259° |
| 2026-05-05 00:20 | 37.69372 | -81.22053 | 32008 ft | 470 kts | 255° |
| 2026-05-05 00:20 | 37.68410 | -81.26004 | 32985 ft | 473 kts | 255° |
| 2026-05-05 00:20 | 37.67588 | -81.30032 | 32975 ft | 473 kts | 259° |
| 2026-05-05 00:21 | 37.66054 | -81.38063 | 32971 ft | 473 kts | 256° |
| 2026-05-05 00:21 | 37.64300 | -81.46070 | 32953 ft | 472 kts | 258° |
| 2026-05-05 00:22 | 37.62706 | -81.54078 | 32945 ft | 472 kts | 256° |
| 2026-05-05 00:22 | 37.60993 | -81.62028 | 32951 ft | 470 kts | 257° |
| 2026-05-05 00:23 | 37.59362 | -81.70002 | 32934 ft | 471 kts | 257° |
| 2026-05-05 00:23 | 37.57652 | -81.77995 | 32938 ft | 470 kts | 257° |
| 2026-05-05 00:24 | 37.55986 | -81.85982 | 32936 ft | 470 kts | 257° |
| 2026-05-05 00:24 | 37.54296 | -81.93911 | 32931 ft | 470 kts | 257° |
| 2026-05-05 00:25 | 37.52606 | -82.01887 | 32928 ft | 469 kts | 256° |
| 2026-05-05 00:25 | 37.50911 | -82.09815 | 32930 ft | 469 kts | 256° |
| 2026-05-05 00:26 | 37.49222 | -82.17714 | 32926 ft | 468 kts | 256° |
| 2026-05-05 00:26 | 37.47518 | -82.25643 | 32938 ft | 469 kts | 256° |
| 2026-05-05 00:27 | 37.45804 | -82.33589 | 32945 ft | 469 kts | 256° |
| 2026-05-05 00:27 | 37.44097 | -82.41478 | 32945 ft | 469 kts | 256° |
| 2026-05-05 00:28 | 37.42370 | -82.49427 | 32944 ft | 469 kts | 256° |
| 2026-05-05 00:28 | 37.40655 | -82.57305 | 32945 ft | 469 kts | 256° |
| 2026-05-05 00:29 | 37.38917 | -82.65234 | 32939 ft | 469 kts | 256° |
| 2026-05-05 00:29 | 37.37189 | -82.73124 | 32935 ft | 470 kts | 256° |
| 2026-05-05 00:30 | 37.35441 | -82.81051 | 32934 ft | 470 kts | 256° |
| 2026-05-05 00:30 | 37.33702 | -82.88923 | 32937 ft | 468 kts | 256° |
| 2026-05-05 00:31 | 37.31941 | -82.96862 | 32944 ft | 470 kts | 256° |
| 2026-05-05 00:31 | 37.30180 | -83.04777 | 32947 ft | 471 kts | 256° |
| 2026-05-05 00:32 | 37.28419 | -83.12656 | 32941 ft | 471 kts | 256° |
| 2026-05-05 00:32 | 37.26942 | -83.19257 | 32947 ft | 471 kts | 256° |
| 2026-05-05 00:33 | 37.25160 | -83.27187 | 32947 ft | 471 kts | 256° |
| 2026-05-05 00:33 | 37.23381 | -83.35071 | 32941 ft | 471 kts | 256° |
| 2026-05-05 00:34 | 37.21588 | -83.42997 | 32942 ft | 472 kts | 256° |
| 2026-05-05 00:34 | 37.19786 | -83.50939 | 32937 ft | 472 kts | 256° |
| 2026-05-05 00:35 | 37.17987 | -83.58825 | 32931 ft | 472 kts | 256° |
| 2026-05-05 00:35 | 37.16175 | -83.66759 | 32931 ft | 472 kts | 256° |
| 2026-05-05 00:36 | 37.14368 | -83.74641 | 32935 ft | 472 kts | 256° |
| 2026-05-05 00:36 | 37.12539 | -83.82578 | 32940 ft | 473 kts | 255° |
| 2026-05-05 00:37 | 37.10710 | -83.90509 | 32942 ft | 473 kts | 255° |
| 2026-05-05 00:37 | 37.08880 | -83.98394 | 32948 ft | 473 kts | 255° |
| 2026-05-05 00:38 | 37.07041 | -84.06313 | 32947 ft | 474 kts | 255° |
| 2026-05-05 00:38 | 37.05197 | -84.14218 | 32945 ft | 474 kts | 255° |
| 2026-05-05 00:39 | 37.03338 | -84.22159 | 32945 ft | 475 kts | 255° |
| 2026-05-05 00:39 | 37.01488 | -84.30044 | 32940 ft | 475 kts | 255° |
| 2026-05-05 00:40 | 36.99616 | -84.37987 | 32917 ft | 475 kts | 255° |
| 2026-05-05 00:40 | 36.97754 | -84.45867 | 32913 ft | 475 kts | 255° |
| 2026-05-05 00:41 | 36.95868 | -84.53808 | 32909 ft | 475 kts | 255° |
| 2026-05-05 00:41 | 36.93987 | -84.61729 | 32915 ft | 476 kts | 255° |
| 2026-05-05 00:42 | 36.92100 | -84.69622 | 32964 ft | 475 kts | 255° |
| 2026-05-05 00:42 | 36.90201 | -84.77562 | 32961 ft | 476 kts | 255° |
| 2026-05-05 00:43 | 36.88291 | -84.85502 | 32967 ft | 476 kts | 255° |
| 2026-05-05 00:43 | 36.86393 | -84.93376 | 32969 ft | 476 kts | 255° |
| 2026-05-05 00:44 | 36.84478 | -85.01301 | 32961 ft | 476 kts | 255° |
| 2026-05-05 00:44 | 36.82552 | -85.09233 | 32956 ft | 476 kts | 255° |
| 2026-05-05 00:45 | 36.80632 | -85.17127 | 32953 ft | 477 kts | 255° |
| 2026-05-05 00:45 | 36.78696 | -85.25047 | 32944 ft | 477 kts | 255° |
| 2026-05-05 00:46 | 36.76765 | -85.32944 | 32938 ft | 477 kts | 255° |
| 2026-05-05 00:46 | 36.74550 | -85.40778 | 32935 ft | 479 kts | 248° |
| 2026-05-05 00:47 | 36.71322 | -85.48087 | 32939 ft | 482 kts | 242° |
| 2026-05-05 00:47 | 36.67971 | -85.55269 | 32936 ft | 482 kts | 243° |
| 2026-05-05 00:48 | 36.64547 | -85.62478 | 32934 ft | 482 kts | 242° |
| 2026-05-05 00:48 | 36.61219 | -85.69539 | 32947 ft | 458 kts | 243° |
| 2026-05-05 00:48 | 36.59621 | -85.72904 | 32926 ft | 441 kts | 243° |
| 2026-05-05 00:49 | 36.58086 | -85.76134 | 32932 ft | 424 kts | 243° |
| 2026-05-05 00:49 | 36.56609 | -85.79254 | 32933 ft | 409 kts | 243° |
| 2026-05-05 00:49 | 36.55209 | -85.82207 | 32931 ft | 394 kts | 243° |
| 2026-05-05 00:49 | 36.53829 | -85.85105 | 32937 ft | 381 kts | 243° |
| 2026-05-05 00:50 | 36.52501 | -85.87896 | 32934 ft | 367 kts | 243° |
| 2026-05-05 00:50 | 36.51223 | -85.90584 | 32934 ft | 355 kts | 244° |
| 2026-05-05 00:50 | 36.50000 | -85.93150 | 32929 ft | 343 kts | 244° |
| 2026-05-05 00:50 | 36.48801 | -85.95665 | 32931 ft | 331 kts | 244° |
| 2026-05-05 00:51 | 36.47649 | -85.98079 | 32934 ft | 319 kts | 244° |
| 2026-05-05 00:51 | 36.46547 | -86.00386 | 32931 ft | 307 kts | 244° |
| 2026-05-05 00:51 | 36.45473 | -86.02633 | 32934 ft | 296 kts | 244° |
| 2026-05-05 00:51 | 36.44439 | -86.04787 | 32934 ft | 285 kts | 244° |
| 2026-05-05 00:52 | 36.43404 | -86.06836 | 32935 ft | 274 kts | 244° |
| 2026-05-05 00:52 | 36.42410 | -86.08800 | 32934 ft | 262 kts | 244° |
| 2026-05-05 00:52 | 36.41465 | -86.10679 | 32934 ft | 250 kts | 244° |
| 2026-05-05 00:52 | 36.40578 | -86.12442 | 32929 ft | 237 kts | 245° |
| 2026-05-05 00:53 | 36.39728 | -86.14128 | 32928 ft | 223 kts | 245° |
| 2026-05-05 00:53 | 36.38929 | -86.15709 | 32922 ft | 207 kts | 245° |
| 2026-05-05 00:53 | 36.38191 | -86.17168 | 32911 ft | 192 kts | 246° |
| 2026-05-05 00:53 | 36.37496 | -86.18559 | 32942 ft | 192 kts | 246° |
| 2026-05-05 00:54 | 36.36784 | -86.19977 | 32946 ft | 194 kts | 246° |
| 2026-05-05 00:54 | 36.36061 | -86.21404 | 32970 ft | 196 kts | 246° |
| 2026-05-05 00:54 | 36.35327 | -86.22862 | 32973 ft | 200 kts | 246° |
| 2026-05-05 00:54 | 36.34578 | -86.24344 | 32977 ft | 205 kts | 245° |